Time;durP1;ratioP1;P1;durP2;ratioP2;P2;SDS_P1;SDS_P2;PMS_P1;PMS_P2;Temp;Humidity;BMP_temperature;BMP_pressure;BME280_temperature;BME280_humidity;BME280_pressure;Samples;Min_cycle;Max_cycle;Signal;HPM_P1;HPM_P2
2021/01/08 00:00:41;;;;;;;16.08;13.10;;;4.20;88.60;;;;;;5023352;28;20036;-58
2021/01/08 00:03:06;;;;;;;17.08;13.00;;;4.20;88.50;;;;;;5033195;28;20025;-56
2021/01/08 00:05:32;;;;;;;16.58;13.13;;;4.20;88.50;;;;;;5041274;28;20021;-56
2021/01/08 00:07:57;;;;;;;16.33;13.48;;;4.20;88.60;;;;;;5044553;28;20510;-57
2021/01/08 00:10:23;;;;;;;16.85;13.30;;;4.20;88.60;;;;;;5033634;28;20065;-58
2021/01/08 00:12:48;;;;;;;15.77;12.63;;;4.20;88.60;;;;;;5045103;28;20110;-56
2021/01/08 00:15:14;;;;;;;16.80;12.93;;;4.20;88.60;;;;;;5044310;28;20099;-58
2021/01/08 00:17:39;;;;;;;17.17;13.32;;;4.10;88.60;;;;;;5043563;28;20400;-58
2021/01/08 00:20:05;;;;;;;16.33;12.93;;;4.20;88.60;;;;;;5035146;28;20506;-58
2021/01/08 00:22:31;;;;;;;16.73;13.50;;;4.20;88.70;;;;;;5031497;28;20120;-56
2021/01/08 00:24:56;;;;;;;16.83;12.90;;;4.20;88.70;;;;;;5041054;28;20188;-56
2021/01/08 00:27:22;;;;;;;16.50;12.98;;;4.20;88.60;;;;;;5044331;28;20055;-57
2021/01/08 00:29:48;;;;;;;15.25;12.20;;;4.20;88.60;;;;;;5052265;28;20173;-57
2021/01/08 00:32:13;;;;;;;17.17;13.32;;;4.10;88.60;;;;;;5021176;28;20037;-58
2021/01/08 00:34:39;;;;;;;15.98;12.68;;;4.20;88.60;;;;;;5040885;28;20099;-57
2021/01/08 00:37:04;;;;;;;17.08;12.07;;;4.20;89.20;;;;;;5032276;28;20327;-58
2021/01/08 00:39:30;;;;;;;14.98;12.00;;;4.20;88.50;;;;;;5042522;28;20108;-58
2021/01/08 00:41:56;;;;;;;16.27;12.02;;;4.20;88.60;;;;;;5044110;28;20023;-59
2021/01/08 00:44:21;;;;;;;14.82;11.73;;;4.20;88.60;;;;;;5032308;28;20037;-59
2021/01/08 00:46:49;;;;;;;16.83;13.07;;;4.20;88.50;;;;;;5013783;28;20115;-56
2021/01/08 00:49:15;;;;;;;14.10;11.82;;;4.20;88.60;;;;;;5024433;28;20411;-57
2021/01/08 00:51:40;;;;;;;15.82;12.73;;;4.20;88.60;;;;;;5029788;28;20026;-58
2021/01/08 00:54:06;;;;;;;15.75;12.23;;;4.10;88.60;;;;;;5039156;28;20029;-59
2021/01/08 00:56:32;;;;;;;15.27;12.18;;;4.10;88.60;;;;;;5027019;28;20079;-57
2021/01/08 00:58:58;;;;;;;14.35;12.07;;;4.10;88.60;;;;;;5042858;28;20041;-58
2021/01/08 01:01:23;;;;;;;13.65;11.45;;;4.20;88.60;;;;;;5043655;28;20029;-58
2021/01/08 01:03:49;;;;;;;15.63;11.85;;;4.20;88.60;;;;;;5045898;28;20072;-59
2021/01/08 01:06:22;;;;;;;14.85;11.35;;;4.20;88.70;;;;;;5026356;28;20052;-56
2021/01/08 01:08:47;;;;;;;14.57;12.02;;;4.10;88.60;;;;;;5033488;28;20067;-57
2021/01/08 01:11:15;;;;;;;15.52;11.90;;;4.20;88.60;;;;;;5040091;28;20036;-57
2021/01/08 01:13:40;;;;;;;15.75;11.88;;;4.20;88.60;;;;;;5011173;28;20021;-57
2021/01/08 01:16:06;;;;;;;14.27;11.80;;;4.10;88.60;;;;;;5027284;28;20033;-58
2021/01/08 01:18:31;;;;;;;14.15;11.43;;;4.20;88.60;;;;;;5041838;28;20029;-58
2021/01/08 01:20:57;;;;;;;15.43;12.25;;;4.20;88.60;;;;;;5026847;28;20107;-59
2021/01/08 01:23:22;;;;;;;15.90;11.93;;;4.20;88.60;;;;;;5042727;28;20033;-56
2021/01/08 01:25:48;;;;;;;13.95;11.55;;;4.20;88.60;;;;;;5043240;28;20060;-59
2021/01/08 01:28:13;;;;;;;12.60;10.90;;;4.10;88.50;;;;;;5040269;28;20052;-57
2021/01/08 01:30:39;;;;;;;15.30;12.20;;;4.10;88.50;;;;;;5037350;28;20493;-57
2021/01/08 01:33:04;;;;;;;14.52;12.48;;;4.10;89.20;;;;;;5020548;28;20124;-57
2021/01/08 01:35:30;;;;;;;14.80;11.32;;;4.10;88.50;;;;;;5024874;28;20082;-59
2021/01/08 01:37:56;;;;;;;14.57;11.70;;;4.10;89.10;;;;;;5040843;28;20072;-59
2021/01/08 01:40:21;;;;;;;14.15;11.48;;;4.10;88.50;;;;;;5042291;28;20044;-59
2021/01/08 01:42:47;;;;;;;14.02;11.30;;;4.20;88.50;;;;;;5042475;28;20373;-57
2021/01/08 01:45:13;;;;;;;14.88;11.88;;;4.20;89.20;;;;;;5032206;28;20423;-59
2021/01/08 01:47:39;;;;;;;14.75;11.30;;;4.10;88.50;;;;;;5042920;28;20513;-57
2021/01/08 01:50:05;;;;;;;14.73;11.18;;;4.20;88.60;;;;;;5017736;28;20055;-58
2021/01/08 01:52:30;;;;;;;16.58;12.88;;;4.20;88.60;;;;;;5004012;28;20100;-57
2021/01/08 01:54:56;;;;;;;13.68;10.93;;;4.20;88.60;;;;;;5021257;28;20096;-59
2021/01/08 01:57:22;;;;;;;14.27;11.30;;;4.30;89.40;;;;;;5039265;28;20025;-58
2021/01/08 01:59:47;;;;;;;12.57;10.65;;;4.10;88.50;;;;;;5009983;28;20024;-58
2021/01/08 02:02:22;;;;;;;14.10;11.27;;;4.20;88.60;;;;;;5041793;28;20357;-57
2021/01/08 02:04:47;;;;;;;13.82;11.32;;;4.20;88.50;;;;;;5022413;28;20086;-57
2021/01/08 02:07:13;;;;;;;14.32;10.93;;;4.10;88.50;;;;;;5037872;28;20033;-57
2021/01/08 02:09:39;;;;;;;13.60;10.80;;;4.10;88.60;;;;;;5027570;28;20030;-58
2021/01/08 02:12:04;;;;;;;13.52;11.07;;;4.10;88.60;;;;;;5035519;28;20400;-58
2021/01/08 02:14:30;;;;;;;14.57;11.98;;;4.20;88.60;;;;;;5026900;28;20021;-58
2021/01/08 02:16:57;;;;;;;13.70;11.23;;;4.20;88.70;;;;;;5033950;28;20359;-59
2021/01/08 02:19:35;;;;;;;14.32;11.15;;;4.20;88.60;;;;;;5029825;28;20028;-57
2021/01/08 02:22:10;;;;;;;13.70;10.88;;;4.10;88.60;;;;;;5014354;28;20025;-58
2021/01/08 02:24:40;;;;;;;15.32;11.90;;;4.10;88.70;;;;;;5015840;28;20064;-57
2021/01/08 02:27:06;;;;;;;13.40;10.75;;;4.10;88.80;;;;;;5024617;28;20067;-59
2021/01/08 02:29:32;;;;;;;15.77;11.18;;;4.10;88.70;;;;;;5018384;28;20140;-56
2021/01/08 02:31:57;;;;;;;14.95;10.77;;;4.10;88.80;;;;;;5033228;28;20026;-57
2021/01/08 02:34:23;;;;;;;14.15;11.32;;;4.10;88.80;;;;;;5020921;28;20050;-61
2021/01/08 02:36:48;;;;;;;14.70;11.43;;;4.10;88.80;;;;;;5027738;28;20029;-56
2021/01/08 02:39:14;;;;;;;13.93;11.02;;;4.20;88.80;;;;;;5015323;28;20052;-57
2021/01/08 02:41:43;;;;;;;14.10;11.73;;;4.10;88.80;;;;;;5019652;28;20033;-58
2021/01/08 02:44:13;;;;;;;13.85;10.57;;;4.10;88.80;;;;;;5013150;28;20467;-56
2021/01/08 02:46:39;;;;;;;13.70;10.82;;;4.10;88.70;;;;;;5021575;28;20031;-58
2021/01/08 02:49:05;;;;;;;13.32;11.10;;;4.10;88.70;;;;;;5028702;28;20100;-59
2021/01/08 02:51:30;;;;;;;14.40;10.90;;;4.10;88.80;;;;;;5039557;28;20429;-57
2021/01/08 02:53:56;;;;;;;13.23;11.05;;;4.10;88.80;;;;;;5033236;28;20116;-57
2021/01/08 02:56:23;;;;;;;13.05;11.10;;;4.10;88.90;;;;;;5010917;28;20029;-58
2021/01/08 02:58:49;;;;;;;14.00;12.02;;;4.10;88.80;;;;;;5010241;28;20148;-56
2021/01/08 03:01:14;;;;;;;14.10;11.38;;;4.10;88.80;;;;;;5013462;28;20045;-58
2021/01/08 03:03:40;;;;;;;13.98;11.00;;;4.10;88.90;;;;;;5018462;28;20029;-57
2021/01/08 03:06:06;;;;;;;14.00;11.32;;;4.10;88.80;;;;;;5008814;28;20052;-57
2021/01/08 03:08:32;;;;;;;12.88;10.85;;;4.10;88.80;;;;;;5025825;28;20064;-59
2021/01/08 03:10:58;;;;;;;14.38;10.55;;;4.10;88.80;;;;;;5045220;28;20068;-59
2021/01/08 03:13:23;;;;;;;13.20;11.50;;;4.10;88.80;;;;;;5040794;28;20542;-65
2021/01/08 03:15:49;;;;;;;14.43;11.73;;;4.10;88.90;;;;;;5024156;28;20029;-59
2021/01/08 03:18:14;;;;;;;12.82;10.63;;;4.10;88.80;;;;;;5042746;28;20029;-56
2021/01/08 03:20:40;;;;;;;13.65;11.07;;;4.10;88.80;;;;;;5023278;28;20028;-59
2021/01/08 03:23:06;;;;;;;13.25;11.30;;;4.10;88.90;;;;;;5032133;28;20385;-57
2021/01/08 03:25:32;;;;;;;12.82;11.02;;;4.10;88.90;;;;;;5036319;28;20448;-58
2021/01/08 03:27:57;;;;;;;14.15;11.35;;;4.10;88.90;;;;;;5037377;28;20029;-57
2021/01/08 03:30:23;;;;;;;12.05;10.30;;;4.00;88.80;;;;;;5040994;28;20040;-56
2021/01/08 03:32:48;;;;;;;13.55;11.63;;;4.10;88.80;;;;;;5023721;28;20030;-58
2021/01/08 03:35:14;;;;;;;15.50;11.00;;;4.10;88.90;;;;;;5005662;28;20048;-57
2021/01/08 03:37:39;;;;;;;13.18;11.05;;;4.10;89.60;;;;;;5041866;28;20033;-57
2021/01/08 03:40:06;;;;;;;12.50;10.55;;;4.00;88.90;;;;;;5041277;28;20028;-59
2021/01/08 03:42:32;;;;;;;11.20;10.00;;;4.10;88.90;;;;;;5040507;28;20026;-59
2021/01/08 03:44:57;;;;;;;13.52;10.45;;;4.00;88.90;;;;;;5040912;28;20033;-58
2021/01/08 03:47:23;;;;;;;12.50;10.73;;;4.00;88.90;;;;;;5039249;28;20029;-58
2021/01/08 03:49:48;;;;;;;11.95;10.60;;;4.00;89.10;;;;;;5035182;28;20034;-58
2021/01/08 03:52:14;;;;;;;13.25;10.43;;;4.00;88.90;;;;;;5020269;28;20032;-58
2021/01/08 03:54:39;;;;;;;15.68;11.85;;;4.00;88.90;;;;;;5022845;28;20044;-58
2021/01/08 03:57:05;;;;;;;14.80;10.82;;;4.00;89.00;;;;;;5042127;28;20088;-58
2021/01/08 03:59:30;;;;;;;12.05;10.70;;;4.00;88.90;;;;;;5021672;28;20029;-59
2021/01/08 04:01:56;;;;;;;13.55;11.07;;;4.00;88.90;;;;;;5039074;28;20419;-56
2021/01/08 04:04:22;;;;;;;14.05;11.20;;;4.00;88.90;;;;;;5039810;28;20029;-56
2021/01/08 04:06:47;;;;;;;12.52;10.43;;;4.00;89.00;;;;;;5043950;28;20048;-59
2021/01/08 04:09:13;;;;;;;15.50;11.15;;;4.00;89.00;;;;;;5034004;28;20416;-56
2021/01/08 04:11:38;;;;;;;12.60;10.25;;;4.00;89.00;;;;;;5017611;28;20032;-58
2021/01/08 04:14:04;;;;;;;14.32;10.95;;;4.00;89.00;;;;;;5011703;28;20034;-56
2021/01/08 04:16:33;;;;;;;12.85;10.48;;;4.00;89.00;;;;;;5034804;28;20489;-58
2021/01/08 04:18:59;;;;;;;14.70;11.75;;;4.00;89.00;;;;;;5033279;28;20385;-58
2021/01/08 04:21:24;;;;;;;12.80;11.02;;;4.00;89.00;;;;;;5032679;28;20029;-58
2021/01/08 04:23:50;;;;;;;12.60;11.05;;;4.00;89.10;;;;;;5011710;28;20280;-57
2021/01/08 04:26:15;;;;;;;12.18;10.68;;;4.00;89.10;;;;;;5040249;28;20029;-59
2021/01/08 04:28:41;;;;;;;16.10;11.20;;;4.00;89.00;;;;;;5032260;28;20280;-56
2021/01/08 04:31:06;;;;;;;12.80;10.52;;;4.00;89.00;;;;;;5015537;28;20029;-58
2021/01/08 04:33:32;;;;;;;15.02;11.00;;;4.00;89.10;;;;;;5015496;28;20505;-57
2021/01/08 04:35:57;;;;;;;12.98;10.80;;;4.00;89.10;;;;;;5012817;28;20299;-58
2021/01/08 04:38:22;;;;;;;13.90;11.20;;;4.00;89.20;;;;;;5011672;28;20117;-67
2021/01/08 04:40:48;;;;;;;12.73;10.63;;;4.00;89.20;;;;;;5015157;28;20041;-59
2021/01/08 04:43:14;;;;;;;11.75;10.02;;;4.00;89.00;;;;;;5017120;28;20386;-58
2021/01/08 04:45:39;;;;;;;14.35;11.13;;;4.00;89.10;;;;;;5018268;28;20167;-58
2021/01/08 04:48:05;;;;;;;13.82;10.20;;;4.00;89.10;;;;;;4984061;28;20490;-58
2021/01/08 04:50:31;;;;;;;15.20;11.15;;;4.00;89.10;;;;;;5011132;28;20030;-58
2021/01/08 04:52:56;;;;;;;12.55;10.57;;;4.00;89.10;;;;;;5013354;28;20121;-59
2021/01/08 04:55:22;;;;;;;13.02;10.52;;;4.00;89.10;;;;;;5011515;28;20485;-57
2021/01/08 04:57:48;;;;;;;14.98;11.10;;;3.90;89.00;;;;;;5014898;28;20505;-58
2021/01/08 05:00:14;;;;;;;12.43;10.02;;;4.00;89.10;;;;;;5012408;28;20485;-57
2021/01/08 05:02:39;;;;;;;13.52;10.32;;;4.00;89.10;;;;;;5015437;28;20090;-59
2021/01/08 05:05:05;;;;;;;13.55;10.27;;;4.00;89.10;;;;;;5015812;28;20080;-56
2021/01/08 05:07:31;;;;;;;13.27;11.02;;;4.00;89.10;;;;;;5015746;28;20033;-58
2021/01/08 05:10:01;;;;;;;11.98;10.05;;;4.00;89.10;;;;;;5013187;28;20025;-57
2021/01/08 05:12:42;;;;;;;12.80;9.75;;;3.90;89.10;;;;;;5023227;28;20346;-56
2021/01/08 05:15:10;;;;;;;12.98;10.40;;;3.90;89.10;;;;;;5016578;28;20029;-60
2021/01/08 05:17:36;;;;;;;12.73;10.60;;;4.00;89.10;;;;;;5002901;28;20018;-57
2021/01/08 05:20:01;;;;;;;12.75;10.15;;;3.90;89.00;;;;;;5016269;28;20041;-58
2021/01/08 05:22:27;;;;;;;13.07;10.30;;;3.90;89.00;;;;;;5017061;28;20025;-57
2021/01/08 05:25:00;;;;;;;15.18;10.10;;;4.00;89.10;;;;;;5021289;28;20443;-58
2021/01/08 05:27:29;;;;;;;12.48;10.48;;;3.90;89.10;;;;;;5017307;28;20029;-57
2021/01/08 05:29:54;;;;;;;13.27;10.18;;;3.90;89.10;;;;;;5007091;28;20064;-58
2021/01/08 05:32:20;;;;;;;13.00;10.27;;;3.90;89.10;;;;;;5014289;28;20069;-58
2021/01/08 05:34:46;;;;;;;11.85;10.23;;;3.90;89.10;;;;;;5016196;28;20400;-58
2021/01/08 05:37:15;;;;;;;13.77;11.13;;;3.90;89.00;;;;;;5016489;28;20032;-57
2021/01/08 05:39:41;;;;;;;12.43;10.52;;;3.90;89.10;;;;;;5021236;28;20064;-57
2021/01/08 05:42:07;;;;;;;12.23;10.65;;;3.90;89.10;;;;;;5017119;28;20026;-56
2021/01/08 05:44:32;;;;;;;12.13;10.30;;;3.90;89.10;;;;;;5014008;28;20028;-58
2021/01/08 05:46:58;;;;;;;12.05;10.32;;;3.90;89.10;;;;;;5015744;28;20042;-59
2021/01/08 05:49:23;;;;;;;12.90;10.23;;;3.90;89.10;;;;;;4997530;28;20501;-56
2021/01/08 05:51:49;;;;;;;12.52;10.00;;;3.90;89.10;;;;;;5025700;28;20025;-59
2021/01/08 05:54:14;;;;;;;13.05;10.70;;;3.90;89.10;;;;;;5003456;28;20042;-58
2021/01/08 05:56:40;;;;;;;12.95;10.32;;;3.90;89.10;;;;;;5016301;28;20033;-57
2021/01/08 05:59:07;;;;;;;12.38;10.18;;;3.90;89.10;;;;;;5013327;28;20034;-58
2021/01/08 06:01:33;;;;;;;12.60;10.73;;;3.90;89.10;;;;;;5019781;28;20398;-57
2021/01/08 06:04:00;;;;;;;11.30;9.52;;;3.90;89.00;;;;;;5020353;28;20161;-56
2021/01/08 06:06:26;;;;;;;11.82;10.23;;;3.90;89.10;;;;;;5023282;28;20100;-58
2021/01/08 06:08:55;;;;;;;11.13;9.60;;;3.90;89.10;;;;;;5016212;28;20109;-59
2021/01/08 06:11:28;;;;;;;12.73;10.45;;;3.90;89.10;;;;;;5011687;28;20030;-58
2021/01/08 06:13:55;;;;;;;12.00;9.70;;;3.90;89.00;;;;;;5017377;28;20053;-58
2021/01/08 06:16:21;;;;;;;12.13;10.25;;;3.90;89.00;;;;;;5014957;28;20022;-58
2021/01/08 06:18:51;;;;;;;12.40;9.75;;;3.90;89.10;;;;;;5017400;28;20495;-57
2021/01/08 06:21:17;;;;;;;11.77;9.95;;;3.80;89.10;;;;;;5014964;28;20448;-58
2021/01/08 06:23:45;;;;;;;13.27;9.52;;;3.90;89.20;;;;;;5019061;28;20022;-59
2021/01/08 06:26:17;;;;;;;11.02;9.07;;;3.80;89.10;;;;;;5017744;28;20038;-56
2021/01/08 06:28:45;;;;;;;10.95;9.32;;;3.80;89.20;;;;;;5019287;28;20044;-57
2021/01/08 06:31:22;;;;;;;9.88;8.88;;;3.80;89.10;;;;;;5014538;28;20026;-56
2021/01/08 06:33:55;;;;;;;11.90;10.05;;;3.80;89.20;;;;;;5024513;28;20501;-59
2021/01/08 06:36:22;;;;;;;12.82;9.73;;;3.80;89.10;;;;;;5023624;28;20025;-58
2021/01/08 06:38:49;;;;;;;12.13;10.15;;;3.80;89.10;;;;;;5033654;28;20436;-56
2021/01/08 06:41:16;;;;;;;12.20;10.20;;;3.80;89.00;;;;;;5009476;28;20033;-57
2021/01/08 06:43:49;;;;;;;11.98;9.85;;;3.80;89.10;;;;;;5017547;28;20112;-59
2021/01/08 06:46:42;;;;;;;12.50;9.68;;;3.80;89.10;;;;;;5027380;28;20535;-57
2021/01/08 06:49:11;;;;;;;12.93;9.70;;;3.80;89.00;;;;;;5029101;28;20378;-56
2021/01/08 06:51:41;;;;;;;11.88;10.38;;;3.80;89.00;;;;;;5020756;28;20036;-56
2021/01/08 06:54:10;;;;;;;12.15;9.63;;;3.80;89.10;;;;;;5025727;28;20048;-58
2021/01/08 06:56:40;;;;;;;12.32;10.10;;;3.80;89.10;;;;;;5018603;28;20375;-59
2021/01/08 06:59:07;;;;;;;10.82;8.77;;;3.80;89.20;;;;;;5031511;28;20108;-58
2021/01/08 07:01:40;;;;;;;11.75;9.57;;;3.80;89.20;;;;;;5014352;28;20104;-57
2021/01/08 07:04:05;;;;;;;10.68;9.55;;;3.80;89.10;;;;;;5033386;28;20199;-59
2021/01/08 07:06:34;;;;;;;11.60;9.93;;;3.70;89.00;;;;;;5029167;28;20123;-58
2021/01/08 07:09:00;;;;;;;12.52;10.18;;;3.80;89.10;;;;;;5014068;28;20370;-56
2021/01/08 07:11:26;;;;;;;11.32;9.43;;;3.80;89.10;;;;;;5022292;28;20021;-58
2021/01/08 07:14:13;;;;;;;12.18;10.07;;;3.80;89.20;;;;;;5040100;28;20041;-58
2021/01/08 07:16:49;;;;;;;10.13;8.88;;;3.70;89.10;;;;;;5021256;28;20048;-57
2021/01/08 07:19:17;;;;;;;11.05;9.30;;;3.70;89.10;;;;;;5029031;28;20052;-58
2021/01/08 07:21:53;;;;;;;12.13;9.02;;;3.80;89.10;;;;;;5023580;28;20041;-57
2021/01/08 07:24:29;;;;;;;11.60;9.77;;;3.80;89.10;;;;;;5015537;28;20034;-59
2021/01/08 07:27:12;;;;;;;11.68;9.55;;;3.80;89.10;;;;;;5021951;28;20017;-57
2021/01/08 07:29:37;;;;;;;11.48;9.70;;;3.80;89.10;;;;;;5029040;28;20108;-56
2021/01/08 07:32:05;;;;;;;11.25;9.55;;;3.70;89.10;;;;;;5035475;28;20174;-59
2021/01/08 07:34:36;;;;;;;10.40;9.20;;;3.70;89.10;;;;;;5036527;28;20125;-62
2021/01/08 07:37:02;;;;;;;12.38;9.15;;;3.70;89.20;;;;;;5037890;28;20105;-59
2021/01/08 07:39:41;;;;;;;12.07;8.88;;;3.70;89.20;;;;;;5037907;28;20439;-58
2021/01/08 07:42:32;;;;;;;11.50;9.73;;;3.70;89.20;;;;;;5047531;28;20029;-58
2021/01/08 07:44:58;;;;;;;11.40;9.73;;;3.70;89.20;;;;;;5044076;28;20069;-57
2021/01/08 07:47:27;;;;;;;11.70;9.85;;;3.70;89.20;;;;;;5029420;28;20063;-60
2021/01/08 07:50:12;;;;;;;13.02;10.00;;;3.70;89.30;;;;;;5052151;28;20045;-57
2021/01/08 07:52:44;;;;;;;12.88;9.73;;;3.70;89.20;;;;;;5043583;28;20036;-60
2021/01/08 07:55:33;;;;;;;11.32;9.57;;;3.70;89.20;;;;;;5024826;28;20047;-59
2021/01/08 07:58:03;;;;;;;12.85;9.70;;;3.70;89.40;;;;;;5052450;28;20501;-57
2021/01/08 08:00:31;;;;;;;12.18;10.00;;;3.60;89.20;;;;;;5027481;28;20021;-56
2021/01/08 08:02:57;;;;;;;10.27;8.98;;;3.70;89.30;;;;;;5044098;28;20036;-57
2021/01/08 08:05:23;;;;;;;11.40;9.40;;;3.60;89.20;;;;;;5017294;28;20017;-57
2021/01/08 08:07:50;;;;;;;10.73;9.18;;;3.70;89.30;;;;;;5020256;28;20073;-57
2021/01/08 08:10:22;;;;;;;11.52;9.35;;;3.70;89.30;;;;;;5014524;28;20025;-58
2021/01/08 08:12:48;;;;;;;24.98;10.82;;;3.70;89.20;;;;;;5025512;28;20487;-57
2021/01/08 08:15:16;;;;;;;27.88;10.63;;;3.70;89.20;;;;;;5034849;28;20025;-58
2021/01/08 08:17:44;;;;;;;39.58;11.23;;;3.70;89.20;;;;;;5048781;28;20021;-57
2021/01/08 08:20:23;;;;;;;34.05;10.90;;;3.60;89.10;;;;;;5026196;28;20025;-59
2021/01/08 08:22:49;;;;;;;32.93;11.63;;;3.60;89.10;;;;;;5031233;28;20400;-57
2021/01/08 08:25:29;;;;;;;29.55;11.45;;;3.70;89.00;;;;;;5033747;28;20030;-59
2021/01/08 08:27:58;;;;;;;33.88;11.38;;;3.60;89.00;;;;;;5034975;28;20473;-57
2021/01/08 08:30:24;;;;;;;27.88;11.85;;;3.70;89.00;;;;;;5046782;28;20029;-59
2021/01/08 08:32:50;;;;;;;27.10;11.73;;;3.70;88.90;;;;;;4994010;28;531449;-58
2021/01/08 08:35:16;;;;;;;33.88;13.15;;;3.70;88.90;;;;;;5035654;28;20488;-59
2021/01/08 08:37:53;;;;;;;29.08;11.73;;;3.60;88.80;;;;;;5048122;28;20228;-58
2021/01/08 08:40:24;;;;;;;39.35;12.73;;;3.70;88.90;;;;;;5044179;28;20020;-58
2021/01/08 08:42:56;;;;;;;24.17;11.30;;;3.70;88.80;;;;;;5022977;28;20117;-59
2021/01/08 08:45:24;;;;;;;31.70;11.68;;;3.70;88.80;;;;;;5054393;28;20024;-60
2021/01/08 08:47:52;;;;;;;27.83;11.73;;;3.70;88.80;;;;;;5007278;28;20051;-57
2021/01/08 08:50:18;;;;;;;36.08;12.18;;;3.70;88.80;;;;;;5026967;28;20158;-59
2021/01/08 08:52:47;;;;;;;33.20;12.57;;;3.80;88.70;;;;;;5014171;28;20025;-59
2021/01/08 08:55:26;;;;;;;26.48;12.13;;;3.70;88.50;;;;;;5032046;28;20036;-56
2021/01/08 08:58:05;;;;;;;36.50;11.73;;;3.70;88.60;;;;;;5036249;28;20037;-58
2021/01/08 09:00:31;;;;;;;24.85;11.07;;;3.70;88.60;;;;;;5048170;28;20048;-58
2021/01/08 09:02:57;;;;;;;24.60;11.43;;;3.80;88.60;;;;;;5044261;28;20132;-57
2021/01/08 09:05:29;;;;;;;24.60;11.00;;;3.70;88.50;;;;;;5015842;28;20016;-60
2021/01/08 09:07:59;;;;;;;27.15;11.75;;;3.70;88.40;;;;;;5050234;28;20046;-57
2021/01/08 09:10:35;;;;;;;24.60;10.75;;;3.80;88.50;;;;;;5032678;28;20021;-60
2021/01/08 09:13:13;;;;;;;33.50;11.88;;;3.70;88.50;;;;;;5046290;28;20036;-57
2021/01/08 09:15:54;;;;;;;34.08;12.63;;;3.80;88.60;;;;;;5045851;28;20255;-60
2021/01/08 09:18:28;;;;;;;28.55;11.00;;;3.80;88.40;;;;;;5030053;28;20022;-57
2021/01/08 09:20:59;;;;;;;23.80;10.55;;;3.80;88.30;;;;;;5026129;28;20381;-57
2021/01/08 09:23:27;;;;;;;28.00;12.07;;;3.80;88.30;;;;;;5029064;28;20208;-57
2021/01/08 09:25:53;;;;;;;21.15;10.45;;;3.80;88.30;;;;;;5016637;28;20156;-59
2021/01/08 09:28:18;;;;;;;29.23;11.77;;;3.80;88.20;;;;;;5040135;28;20116;-58
2021/01/08 09:30:51;;;;;;;31.95;11.40;;;3.80;88.10;;;;;;5048972;28;20441;-59
2021/01/08 09:33:16;;;;;;;33.45;11.43;;;3.90;88.10;;;;;;5033504;28;20064;-59
2021/01/08 09:35:45;;;;;;;34.38;12.05;;;3.90;88.00;;;;;;5042396;28;20460;-57
2021/01/08 09:38:13;;;;;;;35.30;11.80;;;3.90;87.90;;;;;;5049374;28;20029;-58
2021/01/08 09:40:39;;;;;;;29.58;11.00;;;3.90;87.80;;;;;;5042975;28;20068;-59
2021/01/08 09:43:04;;;;;;;31.33;11.15;;;3.90;87.70;;;;;;5043596;28;20029;-59
2021/01/08 09:45:30;;;;;;;28.00;10.63;;;3.90;87.70;;;;;;5019944;28;20020;-56
2021/01/08 09:47:55;;;;;;;25.63;10.10;;;4.00;87.70;;;;;;5038767;28;20086;-58
2021/01/08 09:50:25;;;;;;;31.73;10.20;;;3.90;87.50;;;;;;5046634;28;20075;-59
2021/01/08 09:52:51;;;;;;;21.45;10.38;;;3.90;87.40;;;;;;5012605;28;20060;-60
2021/01/08 09:55:24;;;;;;;19.40;10.40;;;4.00;87.40;;;;;;5024419;28;20574;-57
2021/01/08 09:57:53;;;;;;;27.40;9.93;;;3.90;87.20;;;;;;5020054;28;20029;-58
2021/01/08 10:00:26;;;;;;;25.02;10.35;;;4.00;87.20;;;;;;5039759;28;20124;-57
2021/01/08 10:02:51;;;;;;;25.25;10.40;;;4.00;87.30;;;;;;5023536;28;20496;-60
2021/01/08 10:05:30;;;;;;;30.17;10.30;;;4.00;87.30;;;;;;5039027;28;20037;-58
2021/01/08 10:07:56;;;;;;;27.35;10.65;;;4.00;87.10;;;;;;5044276;28;20114;-57
2021/01/08 10:10:27;;;;;;;27.05;10.77;;;4.00;87.20;;;;;;5040289;28;20029;-59
2021/01/08 10:12:57;;;;;;;20.88;9.85;;;4.00;87.00;;;;;;5046186;28;20041;-57
2021/01/08 10:15:36;;;;;;;25.70;10.35;;;4.10;87.00;;;;;;5020999;28;20370;-57
2021/01/08 10:18:08;;;;;;;17.67;9.45;;;4.00;87.00;;;;;;5014580;28;20108;-59
2021/01/08 10:20:52;;;;;;;31.13;10.98;;;4.10;86.90;;;;;;5031012;28;20034;-57
2021/01/08 10:23:22;;;;;;;27.95;11.13;;;4.10;86.90;;;;;;5033367;28;20120;-58
2021/01/08 10:25:48;;;;;;;25.33;9.82;;;4.10;86.90;;;;;;5037775;28;20024;-58
2021/01/08 10:28:15;;;;;;;22.23;9.95;;;4.10;86.80;;;;;;5035111;28;20428;-59
2021/01/08 10:30:41;;;;;;;24.40;10.38;;;4.10;86.80;;;;;;5018206;28;20302;-59
2021/01/08 10:33:07;;;;;;;25.90;9.48;;;4.10;86.70;;;;;;5046022;28;20495;-58
2021/01/08 10:35:33;;;;;;;19.75;10.55;;;4.10;86.70;;;;;;5041898;28;20673;-60
2021/01/08 10:37:59;;;;;;;19.23;9.98;;;4.10;86.70;;;;;;5015041;28;20035;-59
2021/01/08 10:40:24;;;;;;;23.08;10.38;;;4.20;86.70;;;;;;5043124;28;20029;-58
2021/01/08 10:42:51;;;;;;;21.20;10.15;;;4.10;86.50;;;;;;5047284;28;20495;-57
2021/01/08 10:45:17;;;;;;;18.35;10.00;;;4.20;86.40;;;;;;5036910;28;20611;-58
2021/01/08 10:47:42;;;;;;;27.02;10.15;;;4.20;86.50;;;;;;5039219;28;20098;-58
2021/01/08 10:50:09;;;;;;;22.02;10.00;;;4.20;86.30;;;;;;5017838;28;20486;-57
2021/01/08 10:52:34;;;;;;;18.75;10.23;;;4.20;86.30;;;;;;5046002;28;20029;-62
2021/01/08 10:55:00;;;;;;;23.58;9.07;;;4.20;86.20;;;;;;5019055;28;20500;-58
2021/01/08 10:57:26;;;;;;;18.50;9.70;;;4.20;86.30;;;;;;5017119;28;20537;-59
2021/01/08 10:59:51;;;;;;;16.35;9.15;;;4.30;86.40;;;;;;5035742;28;20033;-56
2021/01/08 11:02:17;;;;;;;20.95;10.30;;;4.30;86.40;;;;;;5038686;28;20037;-57
2021/01/08 11:04:43;;;;;;;17.35;9.10;;;4.30;86.30;;;;;;5038850;28;20033;-59
2021/01/08 11:07:09;;;;;;;18.17;9.07;;;4.40;86.20;;;;;;5015462;28;20022;-59
2021/01/08 11:09:34;;;;;;;22.50;10.00;;;4.30;86.20;;;;;;5036571;28;20025;-57
2021/01/08 11:12:00;;;;;;;23.98;10.07;;;4.30;86.30;;;;;;5029324;28;20059;-57
2021/01/08 11:14:25;;;;;;;19.98;10.07;;;4.30;86.10;;;;;;5016281;28;20017;-59
2021/01/08 11:16:51;;;;;;;19.17;10.30;;;4.30;85.90;;;;;;5031006;28;20067;-59
2021/01/08 11:19:16;;;;;;;19.95;10.60;;;4.30;85.90;;;;;;5038863;28;20074;-57
2021/01/08 11:21:43;;;;;;;17.75;10.18;;;4.30;85.70;;;;;;5040029;28;20030;-59
2021/01/08 11:24:08;;;;;;;23.25;10.15;;;4.40;85.80;;;;;;5040508;28;20311;-61
2021/01/08 11:26:34;;;;;;;19.02;9.38;;;4.40;85.70;;;;;;5019726;28;20029;-58
2021/01/08 11:28:59;;;;;;;18.88;10.30;;;4.40;85.50;;;;;;5039909;28;20057;-57
2021/01/08 11:31:35;;;;;;;19.77;9.55;;;4.40;85.70;;;;;;5043598;28;20469;-59
2021/01/08 11:34:01;;;;;;;19.35;9.75;;;4.40;85.50;;;;;;5043804;28;20057;-57
2021/01/08 11:36:27;;;;;;;13.98;9.13;;;4.50;85.60;;;;;;5023964;28;20032;-58
2021/01/08 11:38:52;;;;;;;24.63;10.07;;;4.40;85.30;;;;;;5041035;28;20052;-57
2021/01/08 11:41:21;;;;;;;16.98;10.35;;;4.50;85.30;;;;;;5034555;28;20034;-59
2021/01/08 11:43:47;;;;;;;23.23;9.57;;;4.50;85.10;;;;;;5046942;28;20041;-59
2021/01/08 11:46:19;;;;;;;13.38;9.10;;;4.50;84.90;;;;;;5042069;28;20014;-58
2021/01/08 11:48:44;;;;;;;14.68;9.20;;;4.50;85.30;;;;;;5027135;28;20493;-59
2021/01/08 11:51:13;;;;;;;20.08;10.02;;;4.60;85.20;;;;;;5027034;28;20013;-58
2021/01/08 11:53:43;;;;;;;16.70;9.60;;;4.50;84.90;;;;;;5044957;28;20033;-58
2021/01/08 11:56:12;;;;;;;15.00;8.98;;;4.60;85.00;;;;;;5041033;28;20029;-59
2021/01/08 11:58:38;;;;;;;21.60;10.23;;;4.60;85.20;;;;;;5046451;28;20044;-57
2021/01/08 12:01:04;;;;;;;19.70;10.05;;;4.60;85.20;;;;;;5035312;28;20342;-57
2021/01/08 12:03:30;;;;;;;18.05;8.52;;;4.60;85.10;;;;;;5035771;28;20029;-56
2021/01/08 12:05:56;;;;;;;19.27;9.52;;;4.60;85.10;;;;;;5016868;28;20526;-56
2021/01/08 12:08:21;;;;;;;14.15;9.23;;;4.60;85.20;;;;;;5042438;28;20029;-57
2021/01/08 12:10:47;;;;;;;21.40;10.57;;;4.70;85.10;;;;;;5035545;28;20025;-58
2021/01/08 12:13:13;;;;;;;20.30;10.10;;;4.70;84.90;;;;;;5046275;28;20029;-56
2021/01/08 12:15:38;;;;;;;15.18;8.85;;;4.70;84.90;;;;;;5024057;28;20033;-57
2021/01/08 12:18:04;;;;;;;17.05;9.60;;;4.70;85.00;;;;;;5036621;28;20476;-60
2021/01/08 12:20:29;;;;;;;17.67;9.38;;;4.70;84.90;;;;;;5040243;28;20044;-57
2021/01/08 12:22:55;;;;;;;17.20;9.48;;;4.70;84.90;;;;;;5047538;28;20081;-60
2021/01/08 12:25:20;;;;;;;16.60;8.85;;;4.70;84.60;;;;;;5047546;28;20028;-64
2021/01/08 12:27:47;;;;;;;16.55;9.18;;;4.80;84.50;;;;;;5045284;28;20040;-58
2021/01/08 12:30:13;;;;;;;11.90;8.77;;;4.70;84.20;;;;;;5030532;28;20048;-59
2021/01/08 12:32:38;;;;;;;17.90;9.55;;;4.80;84.20;;;;;;5037388;28;20033;-57
2021/01/08 12:35:04;;;;;;;16.67;8.50;;;4.80;84.00;;;;;;5048320;28;20044;-58
2021/01/08 12:37:30;;;;;;;16.17;8.68;;;4.80;84.20;;;;;;5040770;28;20032;-57
2021/01/08 12:39:55;;;;;;;15.75;9.05;;;4.80;84.10;;;;;;5029951;28;20098;-57